sensor_id;sensor_type;location;lat;lon;timestamp;pressure;altitude;pressure_sealevel;temperature;humidity
24230;BME280;12362;50.004;8.006;2022-12-16T00:00:34;99834.16;;;-7.80;100.00
24230;BME280;12362;50.004;8.006;2022-12-16T00:02:59;99831.22;;;-8.07;100.00
24230;BME280;12362;50.004;8.006;2022-12-16T00:05:26;99817.88;;;-8.02;100.00
24230;BME280;12362;50.004;8.006;2022-12-16T00:07:52;99825.41;;;-8.03;100.00
24230;BME280;12362;50.004;8.006;2022-12-16T00:10:17;99832.91;;;-8.06;100.00
24230;BME280;12362;50.004;8.006;2022-12-16T00:12:42;99830.53;;;-7.97;100.00
24230;BME280;12362;50.004;8.006;2022-12-16T00:15:08;99830.38;;;-8.07;100.00
24230;BME280;12362;50.004;8.006;2022-12-16T00:17:34;99835.06;;;-8.31;100.00
24230;BME280;12362;50.004;8.006;2022-12-16T00:20:00;99837.94;;;-8.07;100.00
24230;BME280;12362;50.004;8.006;2022-12-16T00:22:27;99835.19;;;-8.22;100.00
24230;BME280;12362;50.004;8.006;2022-12-16T00:24:52;99837.59;;;-8.31;100.00
24230;BME280;12362;50.004;8.006;2022-12-16T00:27:18;99836.84;;;-8.24;100.00
24230;BME280;12362;50.004;8.006;2022-12-16T00:29:43;99825.06;;;-8.25;100.00
24230;BME280;12362;50.004;8.006;2022-12-16T00:32:08;99831.00;;;-8.22;100.00
24230;BME280;12362;50.004;8.006;2022-12-16T00:34:34;99829.97;;;-8.33;100.00
24230;BME280;12362;50.004;8.006;2022-12-16T00:36:59;99838.53;;;-8.25;100.00
24230;BME280;12362;50.004;8.006;2022-12-16T00:39:25;99829.78;;;-8.45;100.00
24230;BME280;12362;50.004;8.006;2022-12-16T00:41:50;99827.25;;;-8.48;100.00
24230;BME280;12362;50.004;8.006;2022-12-16T00:44:16;99835.00;;;-8.33;100.00
24230;BME280;12362;50.004;8.006;2022-12-16T00:46:41;99843.03;;;-8.55;100.00
24230;BME280;12362;50.004;8.006;2022-12-16T00:49:07;99833.13;;;-8.46;100.00
24230;BME280;12362;50.004;8.006;2022-12-16T00:51:33;99834.94;;;-8.39;100.00
24230;BME280;12362;50.004;8.006;2022-12-16T00:53:58;99830.78;;;-8.35;100.00
24230;BME280;12362;50.004;8.006;2022-12-16T00:56:24;99828.47;;;-8.25;100.00
24230;BME280;12362;50.004;8.006;2022-12-16T00:58:49;99826.72;;;-8.27;100.00
24230;BME280;12362;50.004;8.006;2022-12-16T01:01:15;99830.25;;;-8.16;100.00
24230;BME280;12362;50.004;8.006;2022-12-16T01:03:40;99829.44;;;-8.12;100.00
24230;BME280;12362;50.004;8.006;2022-12-16T01:06:10;99827.06;;;-8.04;100.00
24230;BME280;12362;50.004;8.006;2022-12-16T01:08:37;99831.94;;;-8.15;100.00
24230;BME280;12362;50.004;8.006;2022-12-16T01:11:35;99836.25;;;-8.08;100.00
24230;BME280;12362;50.004;8.006;2022-12-16T01:14:01;99842.03;;;-8.14;100.00
24230;BME280;12362;50.004;8.006;2022-12-16T01:16:26;99839.53;;;-8.11;100.00
24230;BME280;12362;50.004;8.006;2022-12-16T01:18:51;99850.28;;;-8.24;100.00
24230;BME280;12362;50.004;8.006;2022-12-16T01:21:20;99848.09;;;-8.53;100.00
24230;BME280;12362;50.004;8.006;2022-12-16T01:23:46;99852.22;;;-8.57;100.00
24230;BME280;12362;50.004;8.006;2022-12-16T01:26:15;99857.44;;;-8.46;100.00
24230;BME280;12362;50.004;8.006;2022-12-16T01:28:41;99859.13;;;-8.47;100.00
24230;BME280;12362;50.004;8.006;2022-12-16T01:31:06;99865.72;;;-8.53;100.00
24230;BME280;12362;50.004;8.006;2022-12-16T01:33:32;99862.31;;;-8.55;100.00
24230;BME280;12362;50.004;8.006;2022-12-16T01:36:02;99859.72;;;-8.60;100.00
24230;BME280;12362;50.004;8.006;2022-12-16T01:38:29;99871.44;;;-8.62;100.00
24230;BME280;12362;50.004;8.006;2022-12-16T01:40:58;99876.25;;;-8.72;100.00
24230;BME280;12362;50.004;8.006;2022-12-16T01:43:28;99884.44;;;-8.82;100.00
24230;BME280;12362;50.004;8.006;2022-12-16T01:46:07;99882.97;;;-8.73;100.00
24230;BME280;12362;50.004;8.006;2022-12-16T01:48:40;99884.53;;;-8.78;100.00
24230;BME280;12362;50.004;8.006;2022-12-16T01:51:29;99884.59;;;-8.73;100.00
24230;BME280;12362;50.004;8.006;2022-12-16T01:54:00;99881.63;;;-8.53;100.00
24230;BME280;12362;50.004;8.006;2022-12-16T01:56:30;99880.00;;;-8.51;100.00
24230;BME280;12362;50.004;8.006;2022-12-16T01:58:58;99877.19;;;-8.67;100.00
24230;BME280;12362;50.004;8.006;2022-12-16T02:01:24;99879.56;;;-8.73;100.00
24230;BME280;12362;50.004;8.006;2022-12-16T02:03:51;99887.34;;;-8.61;100.00
24230;BME280;12362;50.004;8.006;2022-12-16T02:06:18;99886.59;;;-8.57;100.00
24230;BME280;12362;50.004;8.006;2022-12-16T02:08:50;99891.56;;;-8.60;100.00
24230;BME280;12362;50.004;8.006;2022-12-16T02:25:24;99899.53;;;-8.81;100.00
24230;BME280;12362;50.004;8.006;2022-12-16T02:36:44;99896.84;;;-8.91;100.00
24230;BME280;12362;50.004;8.006;2022-12-16T02:39:48;99897.09;;;-8.78;100.00
24230;BME280;12362;50.004;8.006;2022-12-16T02:42:44;99897.16;;;-8.75;100.00
24230;BME280;12362;50.004;8.006;2022-12-16T02:45:24;99899.53;;;-8.81;100.00
24230;BME280;12362;50.004;8.006;2022-12-16T02:47:51;99899.53;;;-8.82;100.00
24230;BME280;12362;50.004;8.006;2022-12-16T02:50:22;99895.97;;;-8.93;100.00
24230;BME280;12362;50.004;8.006;2022-12-16T02:52:51;99891.69;;;-8.97;100.00
24230;BME280;12362;50.004;8.006;2022-12-16T02:55:19;99893.59;;;-8.86;100.00
24230;BME280;12362;50.004;8.006;2022-12-16T03:00:14;99900.97;;;-8.93;100.00
24230;BME280;12362;50.004;8.006;2022-12-16T03:05:24;99901.22;;;-8.81;100.00
24230;BME280;12362;50.004;8.006;2022-12-16T03:07:51;99900.66;;;-8.67;100.00
24230;BME280;12362;50.004;8.006;2022-12-16T03:10:20;99904.06;;;-8.65;100.00
24230;BME280;12362;50.004;8.006;2022-12-16T03:12:47;99903.75;;;-8.81;100.00
24230;BME280;12362;50.004;8.006;2022-12-16T03:15:18;99900.41;;;-8.80;100.00
24230;BME280;12362;50.004;8.006;2022-12-16T03:17:47;99903.94;;;-8.71;100.00
24230;BME280;12362;50.004;8.006;2022-12-16T03:20:18;99904.78;;;-8.70;100.00
24230;BME280;12362;50.004;8.006;2022-12-16T03:22:47;99895.28;;;-8.85;100.00
24230;BME280;12362;50.004;8.006;2022-12-16T03:25:16;99905.31;;;-8.86;100.00
24230;BME280;12362;50.004;8.006;2022-12-16T03:30:38;99915.56;;;-8.77;100.00
24230;BME280;12362;50.004;8.006;2022-12-16T03:33:19;99917.94;;;-8.83;100.00
24230;BME280;12362;50.004;8.006;2022-12-16T03:35:55;99923.09;;;-8.77;100.00
24230;BME280;12362;50.004;8.006;2022-12-16T03:38:23;99932.53;;;-9.05;100.00
24230;BME280;12362;50.004;8.006;2022-12-16T03:40:49;99932.53;;;-9.05;100.00
24230;BME280;12362;50.004;8.006;2022-12-16T03:43:18;99918.56;;;-8.94;100.00
24230;BME280;12362;50.004;8.006;2022-12-16T03:45:44;99933.34;;;-9.08;100.00
24230;BME280;12362;50.004;8.006;2022-12-16T03:48:12;99925.72;;;-9.11;100.00
24230;BME280;12362;50.004;8.006;2022-12-16T03:50:38;99936.72;;;-9.07;100.00
24230;BME280;12362;50.004;8.006;2022-12-16T03:53:05;99931.88;;;-8.98;100.00
24230;BME280;12362;50.004;8.006;2022-12-16T03:55:31;99933.56;;;-8.97;100.00
24230;BME280;12362;50.004;8.006;2022-12-16T03:57:56;99938.34;;;-9.09;100.00
24230;BME280;12362;50.004;8.006;2022-12-16T04:00:23;99940.81;;;-9.11;100.00
24230;BME280;12362;50.004;8.006;2022-12-16T04:02:49;99951.22;;;-9.33;100.00
24230;BME280;12362;50.004;8.006;2022-12-16T04:05:14;99955.63;;;-9.23;100.00
24230;BME280;12362;50.004;8.006;2022-12-16T04:07:40;99951.78;;;-9.07;100.00
24230;BME280;12362;50.004;8.006;2022-12-16T04:10:06;99955.28;;;-9.01;100.00
24230;BME280;12362;50.004;8.006;2022-12-16T04:12:32;99965.56;;;-9.27;100.00
24230;BME280;12362;50.004;8.006;2022-12-16T04:15:16;99969.16;;;-9.16;100.00
24230;BME280;12362;50.004;8.006;2022-12-16T04:18:01;99968.81;;;-9.33;100.00
24230;BME280;12362;50.004;8.006;2022-12-16T04:20:49;99971.94;;;-9.43;100.00
24230;BME280;12362;50.004;8.006;2022-12-16T04:23:45;99963.75;;;-9.34;100.00
24230;BME280;12362;50.004;8.006;2022-12-16T04:26:30;99954.25;;;-9.10;100.00
24230;BME280;12362;50.004;8.006;2022-12-16T04:28:56;99962.03;;;-9.37;100.00
24230;BME280;12362;50.004;8.006;2022-12-16T04:31:21;99961.50;;;-9.24;100.00
24230;BME280;12362;50.004;8.006;2022-12-16T04:33:47;99956.72;;;-9.12;100.00
24230;BME280;12362;50.004;8.006;2022-12-16T04:36:31;99969.88;;;-9.22;100.00
24230;BME280;12362;50.004;8.006;2022-12-16T04:39:33;99954.56;;;-8.54;100.00
24230;BME280;12362;50.004;8.006;2022-12-16T04:42:17;99965.03;;;-8.33;100.00
24230;BME280;12362;50.004;8.006;2022-12-16T04:45:03;99965.03;;;-8.32;100.00
24230;BME280;12362;50.004;8.006;2022-12-16T04:47:48;99961.47;;;-8.44;100.00
24230;BME280;12362;50.004;8.006;2022-12-16T04:50:33;99980.69;;;-8.89;100.00
24230;BME280;12362;50.004;8.006;2022-12-16T04:53:17;99993.09;;;-8.96;100.00
24230;BME280;12362;50.004;8.006;2022-12-16T04:56:01;99982.56;;;-8.79;100.00
24230;BME280;12362;50.004;8.006;2022-12-16T04:58:45;99985.34;;;-8.66;100.00
24230;BME280;12362;50.004;8.006;2022-12-16T05:01:29;99991.47;;;-8.93;100.00
24230;BME280;12362;50.004;8.006;2022-12-16T05:04:13;99990.69;;;-8.91;100.00
24230;BME280;12362;50.004;8.006;2022-12-16T05:06:57;99999.19;;;-8.86;100.00
24230;BME280;12362;50.004;8.006;2022-12-16T05:09:42;100001.69;;;-8.86;100.00
24230;BME280;12362;50.004;8.006;2022-12-16T05:12:25;100007.81;;;-8.73;100.00
24230;BME280;12362;50.004;8.006;2022-12-16T05:15:10;100005.44;;;-8.67;100.00
24230;BME280;12362;50.004;8.006;2022-12-16T05:17:54;100007.22;;;-8.62;100.00
24230;BME280;12362;50.004;8.006;2022-12-16T05:20:38;100009.34;;;-8.80;100.00
24230;BME280;12362;50.004;8.006;2022-12-16T05:23:22;100017.09;;;-8.71;100.00
24230;BME280;12362;50.004;8.006;2022-12-16T05:26:06;100016.16;;;-8.76;100.00
24230;BME280;12362;50.004;8.006;2022-12-16T05:28:50;100021.63;;;-8.94;100.00
24230;BME280;12362;50.004;8.006;2022-12-16T05:31:34;100026.06;;;-8.82;100.00
24230;BME280;12362;50.004;8.006;2022-12-16T05:34:21;100027.59;;;-8.50;100.00
24230;BME280;12362;50.004;8.006;2022-12-16T05:37:05;100036.78;;;-8.90;100.00
24230;BME280;12362;50.004;8.006;2022-12-16T05:39:49;100040.38;;;-8.79;100.00
24230;BME280;12362;50.004;8.006;2022-12-16T05:42:36;100042.94;;;-8.76;100.00
24230;BME280;12362;50.004;8.006;2022-12-16T05:45:20;100051.19;;;-8.83;100.00
24230;BME280;12362;50.004;8.006;2022-12-16T05:48:04;100060.41;;;-8.84;100.00
24230;BME280;12362;50.004;8.006;2022-12-16T05:50:49;100062.66;;;-8.94;100.00
24230;BME280;12362;50.004;8.006;2022-12-16T05:53:33;100066.16;;;-8.88;100.00
24230;BME280;12362;50.004;8.006;2022-12-16T05:56:17;100075.53;;;-8.81;100.00
24230;BME280;12362;50.004;8.006;2022-12-16T05:59:01;100079.00;;;-8.77;100.00
24230;BME280;12362;50.004;8.006;2022-12-16T06:01:45;100076.13;;;-8.92;100.00
24230;BME280;12362;50.004;8.006;2022-12-16T06:04:29;100079.72;;;-8.81;100.00
24230;BME280;12362;50.004;8.006;2022-12-16T06:07:13;100083.31;;;-8.72;100.00
24230;BME280;12362;50.004;8.006;2022-12-16T06:10:00;100092.13;;;-8.89;100.00
24230;BME280;12362;50.004;8.006;2022-12-16T06:12:47;100093.84;;;-8.86;100.00
24230;BME280;12362;50.004;8.006;2022-12-16T06:15:31;100088.09;;;-8.82;100.00
24230;BME280;12362;50.004;8.006;2022-12-16T06:18:15;100098.06;;;-8.85;100.00
24230;BME280;12362;50.004;8.006;2022-12-16T06:20:59;100100.38;;;-8.94;100.00
24230;BME280;12362;50.004;8.006;2022-12-16T06:23:43;100102.97;;;-8.91;100.00
24230;BME280;12362;50.004;8.006;2022-12-16T06:26:27;100103.41;;;-9.07;100.00
24230;BME280;12362;50.004;8.006;2022-12-16T06:29:11;100106.22;;;-8.95;100.00
24230;BME280;12362;50.004;8.006;2022-12-16T06:31:55;100111.31;;;-8.92;100.00
24230;BME280;12362;50.004;8.006;2022-12-16T06:34:39;100115.28;;;-9.01;100.00
24230;BME280;12362;50.004;8.006;2022-12-16T06:37:24;100121.59;;;-9.18;100.00
24230;BME280;12362;50.004;8.006;2022-12-16T06:40:09;100122.22;;;-9.25;100.00
24230;BME280;12362;50.004;8.006;2022-12-16T06:42:53;100132.50;;;-9.16;100.00
24230;BME280;12362;50.004;8.006;2022-12-16T06:45:37;100133.38;;;-9.14;100.00
24230;BME280;12362;50.004;8.006;2022-12-16T06:48:20;100142.13;;;-9.00;100.00
24230;BME280;12362;50.004;8.006;2022-12-16T06:51:04;100143.00;;;-8.98;100.00
24230;BME280;12362;50.004;8.006;2022-12-16T06:53:48;100140.28;;;-9.07;100.00
24230;BME280;12362;50.004;8.006;2022-12-16T06:56:32;100151.34;;;-8.99;100.00
24230;BME280;12362;50.004;8.006;2022-12-16T06:59:16;100154.13;;;-8.89;100.00
24230;BME280;12362;50.004;8.006;2022-12-16T07:02:01;100167.72;;;-8.81;100.00
24230;BME280;12362;50.004;8.006;2022-12-16T07:04:45;100166.22;;;-9.08;100.00
24230;BME280;12362;50.004;8.006;2022-12-16T07:07:29;100179.75;;;-9.36;100.00
24230;BME280;12362;50.004;8.006;2022-12-16T07:10:19;100175.69;;;-9.31;100.00
24230;BME280;12362;50.004;8.006;2022-12-16T07:13:03;100184.22;;;-9.24;100.00
24230;BME280;12362;50.004;8.006;2022-12-16T07:15:47;100190.81;;;-9.60;100.00
24230;BME280;12362;50.004;8.006;2022-12-16T07:18:31;100200.94;;;-9.57;100.00
24230;BME280;12362;50.004;8.006;2022-12-16T07:21:16;100200.69;;;-9.35;100.00
24230;BME280;12362;50.004;8.006;2022-12-16T07:24:00;100208.38;;;-9.29;100.00
24230;BME280;12362;50.004;8.006;2022-12-16T07:26:43;100200.97;;;-9.25;100.00
24230;BME280;12362;50.004;8.006;2022-12-16T07:29:27;100208.47;;;-9.26;100.00
24230;BME280;12362;50.004;8.006;2022-12-16T07:32:12;100212.53;;;-9.31;100.00
24230;BME280;12362;50.004;8.006;2022-12-16T07:34:56;100216.16;;;-9.20;100.00
24230;BME280;12362;50.004;8.006;2022-12-16T07:37:40;100218.00;;;-9.15;100.00
24230;BME280;12362;50.004;8.006;2022-12-16T07:40:24;100219.06;;;-9.05;100.00
24230;BME280;12362;50.004;8.006;2022-12-16T07:43:08;100219.22;;;-8.99;100.00
24230;BME280;12362;50.004;8.006;2022-12-16T07:45:52;100224.94;;;-9.05;100.00
24230;BME280;12362;50.004;8.006;2022-12-16T07:48:36;100225.66;;;-9.09;100.00
24230;BME280;12362;50.004;8.006;2022-12-16T07:51:20;100238.22;;;-9.09;100.00
24230;BME280;12362;50.004;8.006;2022-12-16T07:54:04;100237.16;;;-8.86;100.00
24230;BME280;12362;50.004;8.006;2022-12-16T07:56:49;100250.28;;;-8.65;100.00
24230;BME280;12362;50.004;8.006;2022-12-16T07:59:32;100248.88;;;-8.54;100.00
24230;BME280;12362;50.004;8.006;2022-12-16T08:02:16;100255.69;;;-8.49;100.00
24230;BME280;12362;50.004;8.006;2022-12-16T08:05:00;100263.47;;;-8.38;100.00
24230;BME280;12362;50.004;8.006;2022-12-16T08:07:47;100259.69;;;-8.21;100.00
24230;BME280;12362;50.004;8.006;2022-12-16T08:10:31;100268.31;;;-8.10;100.00
24230;BME280;12362;50.004;8.006;2022-12-16T08:13:14;100269.16;;;-8.10;100.00
24230;BME280;12362;50.004;8.006;2022-12-16T08:15:58;100262.28;;;-7.79;100.00
24230;BME280;12362;50.004;8.006;2022-12-16T08:18:42;100261.00;;;-7.60;100.00
24230;BME280;12362;50.004;8.006;2022-12-16T08:21:26;100269.44;;;-7.60;100.00
24230;BME280;12362;50.004;8.006;2022-12-16T08:24:10;100276.47;;;-7.44;100.00
24230;BME280;12362;50.004;8.006;2022-12-16T08:26:54;100281.09;;;-7.23;100.00
24230;BME280;12362;50.004;8.006;2022-12-16T08:29:55;100282.22;;;-7.08;100.00
24230;BME280;12362;50.004;8.006;2022-12-16T08:32:39;100287.34;;;-7.05;100.00
24230;BME280;12362;50.004;8.006;2022-12-16T08:35:23;100290.09;;;-6.92;100.00
24230;BME280;12362;50.004;8.006;2022-12-16T08:38:07;100289.69;;;-6.70;100.00
24230;BME280;12362;50.004;8.006;2022-12-16T08:40:53;100294.19;;;-6.52;100.00
24230;BME280;12362;50.004;8.006;2022-12-16T08:43:38;100306.34;;;-6.29;100.00
24230;BME280;12362;50.004;8.006;2022-12-16T08:46:22;100304.09;;;-6.14;100.00
24230;BME280;12362;50.004;8.006;2022-12-16T08:49:07;100306.81;;;-6.02;100.00
24230;BME280;12362;50.004;8.006;2022-12-16T08:51:51;100322.97;;;-5.91;100.00
24230;BME280;12362;50.004;8.006;2022-12-16T08:54:35;100315.59;;;-5.76;100.00
24230;BME280;12362;50.004;8.006;2022-12-16T08:57:19;100313.25;;;-5.63;100.00
24230;BME280;12362;50.004;8.006;2022-12-16T09:00:04;100316.88;;;-5.44;100.00
24230;BME280;12362;50.004;8.006;2022-12-16T09:02:58;100317.84;;;-5.34;100.00
24230;BME280;12362;50.004;8.006;2022-12-16T09:05:43;100317.16;;;-5.21;100.00
24230;BME280;12362;50.004;8.006;2022-12-16T09:08:27;100321.53;;;-5.09;100.00
24230;BME280;12362;50.004;8.006;2022-12-16T09:11:11;100324.19;;;-4.97;100.00
24230;BME280;12362;50.004;8.006;2022-12-16T09:14:02;100331.06;;;-4.87;100.00
24230;BME280;12362;50.004;8.006;2022-12-16T09:16:47;100337.97;;;-4.73;100.00
24230;BME280;12362;50.004;8.006;2022-12-16T09:19:31;100325.56;;;-4.50;100.00
24230;BME280;12362;50.004;8.006;2022-12-16T09:22:15;100329.13;;;-4.31;100.00
24230;BME280;12362;50.004;8.006;2022-12-16T09:24:59;100330.84;;;-4.24;100.00
24230;BME280;12362;50.004;8.006;2022-12-16T09:27:43;100338.53;;;-4.16;100.00
24230;BME280;12362;50.004;8.006;2022-12-16T09:30:27;100339.50;;;-4.04;100.00
24230;BME280;12362;50.004;8.006;2022-12-16T09:33:10;100342.06;;;-3.98;100.00
24230;BME280;12362;50.004;8.006;2022-12-16T09:35:54;100347.13;;;-3.98;100.00
24230;BME280;12362;50.004;8.006;2022-12-16T09:38:38;100343.91;;;-3.76;100.00
24230;BME280;12362;50.004;8.006;2022-12-16T09:50:26;100346.78;;;-3.24;100.00
24230;BME280;12362;50.004;8.006;2022-12-16T09:53:14;100348.50;;;-3.18;100.00
24230;BME280;12362;50.004;8.006;2022-12-16T09:56:00;100344.31;;;-3.12;100.00
24230;BME280;12362;50.004;8.006;2022-12-16T09:58:52;100346.88;;;-3.06;100.00
24230;BME280;12362;50.004;8.006;2022-12-16T10:01:40;100352.88;;;-2.86;100.00
24230;BME280;12362;50.004;8.006;2022-12-16T10:04:25;100352.06;;;-2.82;100.00
24230;BME280;12362;50.004;8.006;2022-12-16T10:07:16;100344.50;;;-2.66;100.00
24230;BME280;12362;50.004;8.006;2022-12-16T10:10:10;100347.91;;;-2.53;100.00
24230;BME280;12362;50.004;8.006;2022-12-16T10:16:25;100344.56;;;-2.27;100.00
24230;BME280;12362;50.004;8.006;2022-12-16T10:19:37;100344.56;;;-2.12;100.00
24230;BME280;12362;50.004;8.006;2022-12-16T10:22:46;100349.66;;;-2.12;100.00
24230;BME280;12362;50.004;8.006;2022-12-16T10:26:01;100348.81;;;-2.11;100.00
24230;BME280;12362;50.004;8.006;2022-12-16T10:28:53;100346.28;;;-2.05;100.00
24230;BME280;12362;50.004;8.006;2022-12-16T10:31:39;100348.84;;;-1.93;100.00
24230;BME280;12362;50.004;8.006;2022-12-16T10:34:26;100355.59;;;-1.98;100.00
24230;BME280;12362;50.004;8.006;2022-12-16T10:37:30;100356.44;;;-1.83;100.00
24230;BME280;12362;50.004;8.006;2022-12-16T10:40:18;100353.06;;;-1.80;100.00
24230;BME280;12362;50.004;8.006;2022-12-16T10:43:20;100352.22;;;-1.67;100.00
24230;BME280;12362;50.004;8.006;2022-12-16T10:46:12;100353.03;;;-1.44;100.00
24230;BME280;12362;50.004;8.006;2022-12-16T10:48:58;100353.84;;;-1.35;100.00
24230;BME280;12362;50.004;8.006;2022-12-16T10:51:41;100353.81;;;-1.23;100.00
24230;BME280;12362;50.004;8.006;2022-12-16T10:54:41;100351.25;;;-1.09;100.00
24230;BME280;12362;50.004;8.006;2022-12-16T11:00:38;100346.06;;;-0.86;100.00
24230;BME280;12362;50.004;8.006;2022-12-16T11:03:27;100341.75;;;-0.73;100.00
24230;BME280;12362;50.004;8.006;2022-12-16T11:06:24;100335.69;;;-0.51;100.00
24230;BME280;12362;50.004;8.006;2022-12-16T11:09:34;100344.06;;;-0.33;100.00
24230;BME280;12362;50.004;8.006;2022-12-16T11:12:20;100349.19;;;-0.31;100.00
24230;BME280;12362;50.004;8.006;2022-12-16T11:18:04;100338.75;;;0.00;100.00
24230;BME280;12362;50.004;8.006;2022-12-16T11:21:14;100333.56;;;0.10;100.00
24230;BME280;12362;50.004;8.006;2022-12-16T11:24:17;100335.13;;;0.26;100.00
24230;BME280;12362;50.004;8.006;2022-12-16T11:27:05;100336.84;;;0.24;100.00
24230;BME280;12362;50.004;8.006;2022-12-16T11:30:00;100342.72;;;0.34;100.00
24230;BME280;12362;50.004;8.006;2022-12-16T11:32:53;100329.78;;;0.53;100.00
24230;BME280;12362;50.004;8.006;2022-12-16T11:35:42;100327.97;;;0.61;100.00
24230;BME280;12362;50.004;8.006;2022-12-16T11:38:55;100319.34;;;0.71;100.00
24230;BME280;12362;50.004;8.006;2022-12-16T11:41:41;100325.91;;;0.93;100.00
24230;BME280;12362;50.004;8.006;2022-12-16T11:44:34;100321.47;;;1.10;100.00
24230;BME280;12362;50.004;8.006;2022-12-16T11:47:30;100324.75;;;1.18;100.00
24230;BME280;12362;50.004;8.006;2022-12-16T11:50:21;100322.19;;;1.21;100.00
24230;BME280;12362;50.004;8.006;2022-12-16T11:56:13;100326.59;;;1.72;100.00
24230;BME280;12362;50.004;8.006;2022-12-16T11:59:04;100328.22;;;1.76;100.00
24230;BME280;12362;50.004;8.006;2022-12-16T12:01:58;100335.16;;;1.66;100.00
24230;BME280;12362;50.004;8.006;2022-12-16T12:04:43;100340.75;;;1.93;100.00
24230;BME280;12362;50.004;8.006;2022-12-16T12:07:35;100339.63;;;2.09;100.00
24230;BME280;12362;50.004;8.006;2022-12-16T12:17:12;100333.75;;;2.54;100.00
24230;BME280;12362;50.004;8.006;2022-12-16T12:20:52;100337.13;;;2.56;100.00
24230;BME280;12362;50.004;8.006;2022-12-16T12:26:27;100349.44;;;2.83;100.00
24230;BME280;12362;50.004;8.006;2022-12-16T12:32:27;100358.00;;;2.82;100.00
24230;BME280;12362;50.004;8.006;2022-12-16T12:44:09;100355.88;;;3.03;100.00
24230;BME280;12362;50.004;8.006;2022-12-16T12:47:05;100356.81;;;3.01;100.00
24230;BME280;12362;50.004;8.006;2022-12-16T12:49:56;100351.19;;;2.82;100.00
24230;BME280;12362;50.004;8.006;2022-12-16T12:53:22;100359.69;;;2.83;100.00
24230;BME280;12362;50.004;8.006;2022-12-16T12:59:29;100359.09;;;2.70;100.00
24230;BME280;12362;50.004;8.006;2022-12-16T13:02:23;100364.63;;;2.45;100.00
24230;BME280;12362;50.004;8.006;2022-12-16T13:05:12;100368.09;;;2.43;100.00
24230;BME280;12362;50.004;8.006;2022-12-16T13:11:19;100369.75;;;2.47;100.00
24230;BME280;12362;50.004;8.006;2022-12-16T13:17:13;100379.72;;;2.10;100.00
24230;BME280;12362;50.004;8.006;2022-12-16T13:23:33;100384.72;;;2.18;100.00
24230;BME280;12362;50.004;8.006;2022-12-16T13:26:19;100385.72;;;2.09;100.00
24230;BME280;12362;50.004;8.006;2022-12-16T13:38:02;100408.50;;;2.27;100.00
24230;BME280;12362;50.004;8.006;2022-12-16T13:41:01;100416.31;;;2.18;100.00
24230;BME280;12362;50.004;8.006;2022-12-16T13:46:51;100414.78;;;2.07;100.00
24230;BME280;12362;50.004;8.006;2022-12-16T13:52:35;100432.97;;;1.89;100.00
24230;BME280;12362;50.004;8.006;2022-12-16T13:55:51;100445.50;;;1.41;100.00
24230;BME280;12362;50.004;8.006;2022-12-16T14:01:57;100461.59;;;0.66;100.00
24230;BME280;12362;50.004;8.006;2022-12-16T14:04:46;100461.75;;;0.48;100.00
24230;BME280;12362;50.004;8.006;2022-12-16T14:07:33;100475.34;;;0.49;100.00
24230;BME280;12362;50.004;8.006;2022-12-16T14:10:30;100481.31;;;0.46;100.00
24230;BME280;12362;50.004;8.006;2022-12-16T14:16:32;100486.66;;;0.12;100.00
24230;BME280;12362;50.004;8.006;2022-12-16T14:25:28;100514.69;;;0.18;100.00
24230;BME280;12362;50.004;8.006;2022-12-16T14:28:31;100517.34;;;-0.04;100.00
24230;BME280;12362;50.004;8.006;2022-12-16T14:31:24;100524.19;;;-0.05;100.00
24230;BME280;12362;50.004;8.006;2022-12-16T14:34:33;100528.47;;;-0.17;100.00
24230;BME280;12362;50.004;8.006;2022-12-16T14:37:35;100534.44;;;-0.23;100.00
24230;BME280;12362;50.004;8.006;2022-12-16T14:40:27;100534.47;;;-0.32;100.00
24230;BME280;12362;50.004;8.006;2022-12-16T14:43:18;100537.00;;;-0.23;100.00
24230;BME280;12362;50.004;8.006;2022-12-16T14:46:03;100531.03;;;-0.22;100.00
24230;BME280;12362;50.004;8.006;2022-12-16T14:48:48;100545.53;;;-0.31;100.00
24230;BME280;12362;50.004;8.006;2022-12-16T14:51:44;100550.66;;;-0.39;100.00
24230;BME280;12362;50.004;8.006;2022-12-16T14:57:26;100567.66;;;-0.45;100.00
24230;BME280;12362;50.004;8.006;2022-12-16T15:00:21;100565.13;;;-0.53;100.00
24230;BME280;12362;50.004;8.006;2022-12-16T15:06:03;100579.56;;;-0.55;100.00
24230;BME280;12362;50.004;8.006;2022-12-16T15:09:00;100586.38;;;-0.58;100.00
24230;BME280;12362;50.004;8.006;2022-12-16T15:11:46;100593.19;;;-0.71;100.00
24230;BME280;12362;50.004;8.006;2022-12-16T15:14:36;100591.47;;;-0.64;100.00
24230;BME280;12362;50.004;8.006;2022-12-16T15:17:29;100588.09;;;-0.71;100.00
24230;BME280;12362;50.004;8.006;2022-12-16T15:20:26;100600.84;;;-0.90;100.00
24230;BME280;12362;50.004;8.006;2022-12-16T15:23:30;100600.84;;;-1.12;100.00
24230;BME280;12362;50.004;8.006;2022-12-16T15:26:17;100606.78;;;-1.22;100.00
24230;BME280;12362;50.004;8.006;2022-12-16T15:29:02;100612.69;;;-1.29;100.00
24230;BME280;12362;50.004;8.006;2022-12-16T15:31:49;100616.91;;;-1.37;100.00
24230;BME280;12362;50.004;8.006;2022-12-16T15:34:47;100628.78;;;-1.48;100.00
24230;BME280;12362;50.004;8.006;2022-12-16T15:37:37;100625.41;;;-1.44;100.00
24230;BME280;12362;50.004;8.006;2022-12-16T15:40:28;100628.75;;;-1.47;100.00
24230;BME280;12362;50.004;8.006;2022-12-16T15:43:39;100632.22;;;-1.34;100.00
24230;BME280;12362;50.004;8.006;2022-12-16T15:46:25;100630.53;;;-1.32;100.00
24230;BME280;12362;50.004;8.006;2022-12-16T15:49:34;100642.38;;;-1.39;100.00
24230;BME280;12362;50.004;8.006;2022-12-16T15:55:27;100658.34;;;-1.84;100.00
24230;BME280;12362;50.004;8.006;2022-12-16T15:58:31;100665.75;;;-2.19;100.00
24230;BME280;12362;50.004;8.006;2022-12-16T16:01:18;100672.53;;;-2.16;100.00
24230;BME280;12362;50.004;8.006;2022-12-16T16:04:03;100672.38;;;-2.42;100.00
24230;BME280;12362;50.004;8.006;2022-12-16T16:06:58;100680.09;;;-2.28;100.00
24230;BME280;12362;50.004;8.006;2022-12-16T16:09:42;100680.94;;;-2.32;100.00